Time;durP1;ratioP1;P1;durP2;ratioP2;P2;SDS_P1;SDS_P2;PMS_P1;PMS_P2;Temp;Humidity;BMP_temperature;BMP_pressure;BME280_temperature;BME280_humidity;BME280_pressure;Samples;Min_cycle;Max_cycle;Signal;HPM_P1;HPM_P2
2023/05/05 00:00:54;;;;;;;8.85;6.75;;;14.60;79.50;;;;;;5016150;28;20052;-74
2023/05/05 00:03:24;;;;;;;15.90;7.25;;;14.60;79.70;;;;;;5023010;28;20033;-74
2023/05/05 00:05:51;;;;;;;10.13;7.25;;;14.60;79.80;;;;;;5017407;28;20111;-74
2023/05/05 00:08:19;;;;;;;11.20;7.47;;;14.50;79.90;;;;;;5020620;28;20505;-73
2023/05/05 00:10:45;;;;;;;10.18;7.30;;;14.50;80.10;;;;;;5025829;28;20037;-72
2023/05/05 00:13:11;;;;;;;11.35;7.03;;;14.50;80.30;;;;;;5027168;28;20053;-74
2023/05/05 00:15:37;;;;;;;12.35;7.70;;;14.50;80.60;;;;;;5028918;28;20099;-73
2023/05/05 00:18:03;;;;;;;12.27;7.35;;;14.50;80.80;;;;;;5025953;28;20124;-74
2023/05/05 00:20:29;;;;;;;13.98;7.50;;;14.50;81.10;;;;;;5022785;28;20172;-73
2023/05/05 00:22:55;;;;;;;10.93;7.15;;;14.40;81.20;;;;;;5026800;28;20072;-73
2023/05/05 00:25:20;;;;;;;9.98;7.38;;;14.40;81.60;;;;;;5015397;28;20044;-73
2023/05/05 00:27:46;;;;;;;12.13;7.57;;;14.40;81.80;;;;;;5021031;28;20053;-75
2023/05/05 00:30:12;;;;;;;12.25;7.75;;;14.40;82.00;;;;;;5026219;28;20057;-75
2023/05/05 00:32:38;;;;;;;12.65;7.25;;;14.40;82.30;;;;;;5021928;28;20084;-75
2023/05/05 00:35:05;;;;;;;10.90;7.30;;;14.40;82.30;;;;;;5025349;28;20041;-74
2023/05/05 00:37:31;;;;;;;12.20;7.60;;;14.40;82.70;;;;;;5025485;28;20049;-75
2023/05/05 00:39:56;;;;;;;11.07;7.38;;;14.30;82.90;;;;;;5027595;28;20045;-75
2023/05/05 00:42:23;;;;;;;12.48;7.53;;;14.30;83.00;;;;;;5023465;28;20053;-72
2023/05/05 00:44:49;;;;;;;16.10;8.00;;;14.30;83.60;;;;;;5020797;28;20053;-74
2023/05/05 00:47:16;;;;;;;8.82;7.38;;;14.30;83.80;;;;;;5026858;28;20123;-73
2023/05/05 00:49:42;;;;;;;10.55;7.70;;;14.30;83.90;;;;;;5044289;28;20042;-73
2023/05/05 00:52:08;;;;;;;11.35;7.00;;;14.30;84.00;;;;;;5026532;28;20133;-73
2023/05/05 00:54:34;;;;;;;11.23;8.05;;;14.20;84.20;;;;;;5028661;28;20686;-74
2023/05/05 00:57:03;;;;;;;11.35;7.40;;;14.20;84.30;;;;;;5024686;28;20129;-74
2023/05/05 00:59:31;;;;;;;18.00;8.05;;;14.20;84.50;;;;;;5024433;28;20026;-73
2023/05/05 01:01:57;;;;;;;11.13;7.88;;;14.20;84.70;;;;;;5022262;28;20041;-73
2023/05/05 01:04:25;;;;;;;10.38;7.57;;;14.20;84.90;;;;;;5023351;28;20050;-73
2023/05/05 01:07:21;;;;;;;10.80;7.63;;;14.20;84.90;;;;;;5027862;28;20057;-73
2023/05/05 01:10:01;;;;;;;11.05;7.65;;;14.20;85.40;;;;;;5024925;28;20037;-73
2023/05/05 01:13:02;;;;;;;9.70;7.25;;;14.10;85.50;;;;;;5028083;28;20068;-73
2023/05/05 01:15:37;;;;;;;10.20;7.40;;;14.10;85.70;;;;;;5024750;28;20513;-73
2023/05/05 01:18:10;;;;;;;12.52;7.82;;;14.10;85.70;;;;;;5025908;28;20583;-73
2023/05/05 01:20:56;;;;;;;12.88;8.43;;;14.10;85.80;;;;;;5018088;28;20064;-74
2023/05/05 01:24:06;;;;;;;10.57;8.13;;;14.10;85.90;;;;;;5025288;28;20110;-73
2023/05/05 01:26:40;;;;;;;10.23;7.05;;;14.10;86.10;;;;;;5019870;28;20107;-73
2023/05/05 01:29:31;;;;;;;10.43;7.80;;;14.00;86.30;;;;;;5028468;28;20211;-73
2023/05/05 01:32:03;;;;;;;10.52;7.43;;;14.00;86.50;;;;;;5024424;28;20045;-73
2023/05/05 01:34:35;;;;;;;13.05;7.95;;;14.00;86.40;;;;;;5027106;28;20088;-73
2023/05/05 01:37:10;;;;;;;11.15;7.68;;;14.00;86.50;;;;;;5025312;28;20175;-73
2023/05/05 01:39:39;;;;;;;14.20;7.35;;;14.00;86.40;;;;;;5018899;28;20060;-73
2023/05/05 01:42:09;;;;;;;13.13;7.50;;;14.00;86.70;;;;;;5022567;28;20060;-73
2023/05/05 01:44:36;;;;;;;10.35;7.97;;;13.90;86.80;;;;;;5014133;28;20037;-73
2023/05/05 01:47:04;;;;;;;11.32;7.55;;;14.00;86.90;;;;;;5025904;28;20041;-73
2023/05/05 01:49:31;;;;;;;12.07;7.43;;;14.00;86.90;;;;;;5019866;28;20404;-73
2023/05/05 01:51:57;;;;;;;;;;;13.90;86.80;;;;;;5027916;28;20041;-73
2023/05/05 01:54:25;;;;;;;14.07;7.60;;;13.90;87.10;;;;;;5024155;28;20269;-73
2023/05/05 01:56:55;;;;;;;15.60;7.50;;;13.90;87.20;;;;;;5025332;28;20528;-73
2023/05/05 01:59:22;;;;;;;11.13;7.35;;;13.90;87.00;;;;;;5023664;28;20086;-73
2023/05/05 02:01:49;;;;;;;12.00;7.53;;;13.90;87.30;;;;;;5036750;28;20373;-75
2023/05/05 02:04:17;;;;;;;11.60;7.60;;;13.90;87.30;;;;;;5025426;28;20534;-73
2023/05/05 02:06:44;;;;;;;11.13;7.82;;;13.90;87.60;;;;;;5019921;28;20095;-73
2023/05/05 02:09:15;;;;;;;9.23;7.35;;;13.90;87.90;;;;;;5020854;28;20069;-73
2023/05/05 02:11:49;;;;;;;12.88;7.38;;;13.80;87.80;;;;;;5026165;28;20049;-74
2023/05/05 02:14:18;;;;;;;13.85;8.13;;;13.80;87.80;;;;;;5026400;28;20052;-74
2023/05/05 02:16:43;;;;;;;10.13;7.55;;;13.80;88.10;;;;;;5026074;28;20073;-73
2023/05/05 02:19:11;;;;;;;11.07;7.68;;;13.80;88.20;;;;;;5024236;28;20119;-73
2023/05/05 02:21:36;;;;;;;11.27;7.25;;;13.80;88.30;;;;;;5026033;28;20065;-73
2023/05/05 02:24:03;;;;;;;10.88;7.20;;;13.80;88.10;;;;;;5019665;28;20067;-74
2023/05/05 02:26:32;;;;;;;11.70;6.78;;;13.70;88.10;;;;;;5018248;28;20038;-74
2023/05/05 02:29:06;;;;;;;9.50;6.40;;;13.70;88.20;;;;;;5013801;28;20057;-74
2023/05/05 02:31:37;;;;;;;12.02;7.03;;;13.70;88.90;;;;;;5019956;28;20049;-74
2023/05/05 02:34:06;;;;;;;11.32;7.00;;;13.70;88.50;;;;;;5025930;28;20465;-74
2023/05/05 02:36:35;;;;;;;12.50;6.82;;;13.70;88.50;;;;;;5018970;28;20556;-74
2023/05/05 02:39:05;;;;;;;9.73;6.80;;;13.60;88.70;;;;;;5022791;28;20952;-74
2023/05/05 02:41:34;;;;;;;12.18;6.82;;;13.60;88.80;;;;;;5013940;28;20725;-74
2023/05/05 02:44:03;;;;;;;11.30;6.88;;;13.60;88.90;;;;;;5024919;28;20489;-74
2023/05/05 02:46:30;;;;;;;10.25;6.68;;;13.50;89.00;;;;;;5019289;28;20044;-74
2023/05/05 02:48:58;;;;;;;11.37;6.83;;;13.50;89.40;;;;;;5021915;28;20076;-74
2023/05/05 02:51:24;;;;;;;11.70;6.45;;;13.50;89.70;;;;;;5026112;28;20292;-74
2023/05/05 02:53:51;;;;;;;10.02;6.10;;;13.40;90.00;;;;;;5023514;28;20745;-74
2023/05/05 02:56:31;;;;;;;10.35;6.60;;;13.40;90.00;;;;;;5037260;28;20088;-74
2023/05/05 02:59:21;;;;;;;10.77;6.90;;;13.40;90.00;;;;;;5028851;28;20037;-74
2023/05/05 03:02:12;;;;;;;11.98;6.93;;;13.40;90.20;;;;;;5019092;28;20492;-74
2023/05/05 03:04:41;;;;;;;13.50;6.93;;;13.30;90.50;;;;;;5025150;28;20088;-73
2023/05/05 03:07:25;;;;;;;10.07;6.47;;;13.30;90.60;;;;;;5025099;28;20041;-74
2023/05/05 03:10:10;;;;;;;11.32;6.70;;;13.30;90.80;;;;;;5021712;28;20042;-73
2023/05/05 03:12:47;;;;;;;11.38;7.03;;;13.30;90.80;;;;;;5027498;28;20037;-73
2023/05/05 03:15:14;;;;;;;12.77;6.75;;;13.30;90.90;;;;;;5024453;28;20038;-73
2023/05/05 03:17:41;;;;;;;11.00;6.40;;;13.30;90.80;;;;;;5023656;28;20679;-73
2023/05/05 03:20:09;;;;;;;12.40;7.07;;;13.40;90.90;;;;;;5021961;28;20132;-74
2023/05/05 03:22:35;;;;;;;;;;;13.30;91.00;;;;;;5027861;28;20052;-73
2023/05/05 03:25:01;;;;;;;10.45;6.85;;;13.40;90.80;;;;;;5021389;28;19921;-73
2023/05/05 03:27:27;;;;;;;10.52;6.90;;;13.20;91.00;;;;;;5024597;28;20034;-73
2023/05/05 03:29:53;;;;;;;9.63;6.75;;;13.20;91.30;;;;;;5020471;28;20072;-73
2023/05/05 03:32:19;;;;;;;9.80;6.97;;;13.20;91.60;;;;;;5024824;28;20069;-73
2023/05/05 03:34:44;;;;;;;11.80;7.00;;;13.10;91.60;;;;;;5024264;28;20045;-73
2023/05/05 03:37:10;;;;;;;12.07;6.85;;;13.10;91.70;;;;;;5037042;28;20045;-73
2023/05/05 03:39:35;;;;;;;11.40;6.70;;;13.10;91.90;;;;;;5028319;28;20056;-74
2023/05/05 03:42:01;;;;;;;10.02;6.68;;;13.00;92.00;;;;;;5027704;28;20041;-74
2023/05/05 03:44:27;;;;;;;11.35;6.90;;;13.10;92.30;;;;;;5026289;28;20390;-73
2023/05/05 03:46:52;;;;;;;11.75;7.20;;;13.10;92.50;;;;;;5028921;28;20373;-74
2023/05/05 03:49:18;;;;;;;10.93;7.25;;;13.00;92.60;;;;;;5028962;28;20048;-74
2023/05/05 03:51:43;;;;;;;12.77;7.60;;;13.00;92.80;;;;;;5026325;28;20160;-74
2023/05/05 03:54:10;;;;;;;9.50;7.03;;;13.00;92.90;;;;;;5030001;28;20890;-74
2023/05/05 03:56:35;;;;;;;10.07;7.10;;;12.90;93.10;;;;;;5026514;28;20083;-73
2023/05/05 03:59:01;;;;;;;10.95;7.25;;;13.00;93.00;;;;;;5024219;28;20041;-73
2023/05/05 04:01:28;;;;;;;11.35;7.25;;;12.90;93.10;;;;;;5027579;28;20393;-74
2023/05/05 04:03:55;;;;;;;;;;;12.90;93.30;;;;;;5028340;28;20054;-74
2023/05/05 04:06:20;;;;;;;9.32;7.20;;;13.00;93.70;;;;;;5027337;28;19921;-74
2023/05/05 04:08:46;;;;;;;8.70;6.82;;;12.90;93.80;;;;;;5025466;28;20046;-74
2023/05/05 04:11:12;;;;;;;12.15;7.05;;;12.90;94.20;;;;;;5026345;28;20554;-74
2023/05/05 04:13:37;;;;;;;8.82;7.20;;;12.90;94.30;;;;;;5028127;28;20103;-74
2023/05/05 04:16:03;;;;;;;9.30;7.18;;;13.00;94.50;;;;;;5029340;28;20278;-74
2023/05/05 04:18:30;;;;;;;19.30;9.75;;;13.00;94.60;;;;;;5027967;28;20041;-74
2023/05/05 04:20:55;;;;;;;15.85;8.68;;;13.00;96.30;;;;;;5028253;28;20638;-73
2023/05/05 04:23:21;;;;;;;16.88;8.75;;;13.00;98.50;;;;;;5038406;28;20073;-73
2023/05/05 04:25:47;;;;;;;14.73;9.90;;;12.90;99.30;;;;;;5028158;28;20045;-74
2023/05/05 04:28:12;;;;;;;13.70;8.77;;;12.90;99.90;;;;;;5022356;28;20048;-74
2023/05/05 04:30:38;;;;;;;15.50;8.43;;;12.80;99.90;;;;;;5027816;28;20049;-74
2023/05/05 04:33:04;;;;;;;14.60;10.93;;;12.80;99.90;;;;;;5018821;28;20038;-74
2023/05/05 04:35:29;;;;;;;12.35;9.25;;;12.80;99.90;;;;;;5024787;28;20049;-73
2023/05/05 04:37:55;;;;;;;18.30;10.40;;;12.70;99.90;;;;;;5027891;28;20176;-74
2023/05/05 04:40:21;;;;;;;11.43;8.75;;;12.70;99.90;;;;;;5017352;28;20089;-74
2023/05/05 04:42:46;;;;;;;11.25;8.63;;;12.70;99.90;;;;;;5036552;28;20397;-74
2023/05/05 04:45:12;;;;;;;12.18;9.68;;;12.60;99.90;;;;;;5021488;28;20041;-74
2023/05/05 04:47:38;;;;;;;14.60;9.02;;;12.60;99.90;;;;;;5027063;28;20073;-74
2023/05/05 04:50:05;;;;;;;13.05;9.75;;;12.60;99.90;;;;;;5027132;28;20195;-74
2023/05/05 04:52:31;;;;;;;11.20;9.18;;;12.60;99.90;;;;;;5026739;28;20045;-74
2023/05/05 04:54:57;;;;;;;12.10;9.70;;;12.60;99.90;;;;;;5026950;28;20171;-74
2023/05/05 04:57:23;;;;;;;14.32;10.00;;;12.50;99.90;;;;;;5020658;28;20088;-74
2023/05/05 04:59:48;;;;;;;10.18;8.80;;;12.50;99.90;;;;;;5025925;28;20061;-74
2023/05/05 05:02:14;;;;;;;15.07;9.50;;;12.50;99.90;;;;;;5024590;28;20393;-74
2023/05/05 05:04:40;;;;;;;14.57;9.23;;;12.50;99.90;;;;;;5026049;28;20056;-73
2023/05/05 05:07:08;;;;;;;11.20;9.35;;;12.50;99.90;;;;;;5024925;28;20042;-72
2023/05/05 05:09:34;;;;;;;11.57;9.68;;;12.50;99.90;;;;;;5027096;28;20048;-74
2023/05/05 05:12:03;;;;;;;10.90;9.10;;;12.50;99.90;;;;;;5023559;28;20049;-72
2023/05/05 05:14:29;;;;;;;13.23;9.35;;;12.50;99.90;;;;;;5023534;28;20532;-72
2023/05/05 05:16:54;;;;;;;11.88;9.63;;;12.50;99.90;;;;;;5026948;28;20049;-72
2023/05/05 05:19:20;;;;;;;11.27;9.60;;;12.50;99.90;;;;;;5027018;28;20040;-72
2023/05/05 05:21:46;;;;;;;12.15;9.35;;;12.40;99.90;;;;;;5027809;28;20045;-72
2023/05/05 05:24:11;;;;;;;13.85;9.50;;;12.40;99.90;;;;;;5021609;28;20056;-71
2023/05/05 05:26:37;;;;;;;13.10;8.77;;;12.50;99.90;;;;;;5028272;28;20168;-71
2023/05/05 05:29:06;;;;;;;9.85;8.45;;;12.50;99.90;;;;;;5025899;28;20045;-75
2023/05/05 05:31:33;;;;;;;11.95;9.30;;;12.50;99.90;;;;;;5024045;28;20724;-73
2023/05/05 05:33:59;;;;;;;14.80;9.43;;;12.50;99.90;;;;;;5025858;28;20176;-73
2023/05/05 05:36:28;;;;;;;11.25;9.40;;;12.40;99.90;;;;;;5026436;28;20455;-72
2023/05/05 05:38:57;;;;;;;16.15;10.45;;;12.50;99.90;;;;;;5022041;28;20085;-73
2023/05/05 05:41:25;;;;;;;14.43;10.63;;;12.50;99.90;;;;;;5024630;28;20044;-73
2023/05/05 05:43:54;;;;;;;12.73;9.07;;;12.50;99.90;;;;;;5027169;28;20563;-73
2023/05/05 05:46:23;;;;;;;12.45;9.57;;;12.60;99.90;;;;;;5023976;28;20225;-73
2023/05/05 05:48:49;;;;;;;12.73;9.77;;;12.60;99.90;;;;;;5023806;28;20456;-73
2023/05/05 05:51:20;;;;;;;10.70;9.55;;;12.60;99.90;;;;;;5021389;28;20074;-75
2023/05/05 05:53:45;;;;;;;12.88;9.45;;;12.60;99.90;;;;;;5021483;28;20061;-73
2023/05/05 05:56:11;;;;;;;13.02;9.52;;;12.70;99.90;;;;;;5023611;28;20547;-73
2023/05/05 05:58:37;;;;;;;12.48;9.93;;;12.70;99.90;;;;;;5018274;28;20041;-73
2023/05/05 06:01:04;;;;;;;11.57;9.52;;;12.70;99.90;;;;;;5016342;28;20057;-73
2023/05/05 06:03:30;;;;;;;12.48;9.43;;;12.80;99.90;;;;;;5019011;28;20120;-73
2023/05/05 06:05:58;;;;;;;13.27;10.27;;;12.80;99.90;;;;;;5021389;28;20065;-74
2023/05/05 06:08:24;;;;;;;13.88;9.90;;;12.90;99.90;;;;;;5023276;28;20056;-74
2023/05/05 06:10:53;;;;;;;14.52;10.95;;;12.90;99.90;;;;;;5019631;28;20049;-73
2023/05/05 06:13:19;;;;;;;13.63;10.73;;;13.00;99.90;;;;;;5019556;28;20565;-73
2023/05/05 06:15:45;;;;;;;14.55;10.48;;;13.00;99.90;;;;;;5022504;28;20049;-73
2023/05/05 06:18:10;;;;;;;13.55;10.30;;;13.00;99.90;;;;;;5022563;28;20045;-74
2023/05/05 06:20:36;;;;;;;14.25;10.73;;;13.00;99.90;;;;;;5023695;28;20127;-74
2023/05/05 06:23:08;;;;;;;14.00;11.10;;;13.00;99.90;;;;;;5025140;28;20063;-74
2023/05/05 06:25:40;;;;;;;15.63;10.95;;;13.20;99.90;;;;;;5021556;28;20053;-74
2023/05/05 06:28:18;;;;;;;13.80;12.00;;;13.10;99.90;;;;;;5021962;28;20060;-74
2023/05/05 06:30:44;;;;;;;12.63;10.70;;;13.20;99.90;;;;;;5019851;28;20049;-74
2023/05/05 06:33:09;;;;;;;15.50;11.40;;;13.20;99.90;;;;;;5021768;28;20459;-74
2023/05/05 06:35:35;;;;;;;13.98;11.00;;;13.20;99.90;;;;;;5020532;28;20072;-72
2023/05/05 06:38:04;;;;;;;15.73;11.93;;;13.30;99.90;;;;;;5022894;28;20718;-72
2023/05/05 06:40:30;;;;;;;17.42;11.52;;;13.30;99.90;;;;;;5022219;28;20030;-72
2023/05/05 06:43:11;;;;;;;13.70;12.07;;;13.30;99.90;;;;;;5020159;28;20048;-72
2023/05/05 06:45:40;;;;;;;14.30;12.30;;;13.30;99.90;;;;;;5027237;28;20444;-73
2023/05/05 06:48:06;;;;;;;12.88;11.48;;;13.40;99.90;;;;;;5025046;28;20037;-74
2023/05/05 06:50:32;;;;;;;14.10;11.63;;;13.30;99.90;;;;;;5025835;28;20045;-74
2023/05/05 06:52:58;;;;;;;15.13;11.88;;;13.40;99.90;;;;;;5020899;28;20037;-74
2023/05/05 06:55:24;;;;;;;13.07;11.32;;;13.40;99.90;;;;;;5017744;28;20088;-73
2023/05/05 06:57:53;;;;;;;14.60;11.93;;;13.40;99.90;;;;;;5024241;28;20038;-74
2023/05/05 07:00:19;;;;;;;14.07;11.63;;;13.50;99.90;;;;;;5003200;28;20045;-74
2023/05/05 07:02:46;;;;;;;15.80;12.18;;;13.60;99.90;;;;;;5023752;28;20033;-71
2023/05/05 07:05:12;;;;;;;17.63;12.05;;;13.70;99.90;;;;;;5021708;28;20158;-71
2023/05/05 07:07:50;;;;;;;16.98;12.43;;;13.80;99.90;;;;;;5021573;28;20080;-74
2023/05/05 07:10:20;;;;;;;14.30;11.85;;;14.00;99.90;;;;;;5016147;28;20408;-71
2023/05/05 07:12:45;;;;;;;18.30;13.02;;;14.10;99.90;;;;;;5016378;28;20045;-71
2023/05/05 07:15:11;;;;;;;16.33;12.38;;;14.20;99.90;;;;;;5011187;28;20041;-73
2023/05/05 07:17:37;;;;;;;14.25;11.27;;;14.30;99.90;;;;;;5018126;28;20052;-71
2023/05/05 07:20:03;;;;;;;14.57;12.30;;;14.40;99.90;;;;;;5022906;28;20057;-74
2023/05/05 07:22:35;;;;;;;19.60;12.35;;;14.50;99.90;;;;;;5017711;28;20049;-71
2023/05/05 07:25:01;;;;;;;17.02;12.50;;;14.60;99.90;;;;;;5026511;28;20138;-72
2023/05/05 07:27:27;;;;;;;16.10;13.07;;;14.70;99.90;;;;;;5025167;28;20052;-71
2023/05/05 07:29:53;;;;;;;16.25;13.10;;;14.80;99.90;;;;;;5024936;28;20076;-72
2023/05/05 07:32:18;;;;;;;18.33;13.25;;;14.90;99.90;;;;;;5024596;28;20399;-72
2023/05/05 07:34:44;;;;;;;17.25;13.63;;;15.00;99.90;;;;;;5021598;28;20037;-72
2023/05/05 07:37:10;;;;;;;18.13;13.43;;;15.00;99.90;;;;;;5025803;28;20042;-74
2023/05/05 07:39:35;;;;;;;15.65;13.77;;;15.10;99.90;;;;;;5022249;28;20056;-73
2023/05/05 07:42:01;;;;;;;16.23;13.45;;;15.20;99.90;;;;;;5022561;28;20037;-72
2023/05/05 07:44:27;;;;;;;15.40;13.77;;;15.30;99.90;;;;;;5022337;28;20049;-72
2023/05/05 07:46:52;;;;;;;19.30;13.73;;;15.40;99.90;;;;;;5026388;28;20041;-72
2023/05/05 07:49:19;;;;;;;16.65;13.55;;;15.40;99.90;;;;;;5022738;28;20045;-70
2023/05/05 07:51:45;;;;;;;16.77;13.40;;;15.50;99.90;;;;;;5026184;28;20045;-72
2023/05/05 07:54:11;;;;;;;15.93;13.38;;;15.60;99.90;;;;;;5025589;28;20081;-72
2023/05/05 07:56:37;;;;;;;17.00;15.20;;;15.60;99.90;;;;;;5025408;28;20045;-72
2023/05/05 07:59:03;;;;;;;16.50;14.45;;;15.70;99.90;;;;;;5023634;28;20083;-72
2023/05/05 08:01:28;;;;;;;16.65;13.32;;;15.80;99.90;;;;;;5018524;28;20104;-72
2023/05/05 08:03:54;;;;;;;17.27;14.27;;;15.80;99.90;;;;;;5017972;28;20163;-70
2023/05/05 08:06:23;;;;;;;19.50;14.50;;;15.90;99.90;;;;;;5022318;28;20042;-70
2023/05/05 08:08:52;;;;;;;19.02;15.45;;;15.90;99.90;;;;;;5019103;28;20052;-70
2023/05/05 08:11:18;;;;;;;19.65;15.40;;;16.00;99.90;;;;;;5025360;28;20497;-69
2023/05/05 08:13:44;;;;;;;16.83;14.65;;;16.10;99.90;;;;;;5023646;28;20049;-71
2023/05/05 08:16:10;;;;;;;18.38;15.10;;;16.10;99.90;;;;;;5022703;28;20129;-72
2023/05/05 08:18:37;;;;;;;18.08;16.23;;;16.20;99.90;;;;;;5027133;28;20136;-72
2023/05/05 08:21:10;;;;;;;19.37;15.43;;;16.20;99.90;;;;;;5021793;28;20045;-71
2023/05/05 08:23:37;;;;;;;18.48;15.85;;;16.30;99.90;;;;;;5025380;28;20296;-71
2023/05/05 08:26:08;;;;;;;18.30;16.10;;;16.40;99.90;;;;;;5024369;28;20049;-71
2023/05/05 08:28:35;;;;;;;17.75;15.75;;;16.50;99.90;;;;;;5024328;28;20133;-73
2023/05/05 08:31:04;;;;;;;18.40;15.88;;;16.60;99.90;;;;;;5020463;28;20042;-72
2023/05/05 08:33:30;;;;;;;18.13;16.27;;;16.60;99.90;;;;;;5018977;28;20053;-71
2023/05/05 08:35:55;;;;;;;18.67;16.67;;;16.70;99.90;;;;;;5025573;28;20076;-70
2023/05/05 08:38:27;;;;;;;21.30;17.35;;;16.80;99.90;;;;;;5027068;28;20037;-72
2023/05/05 08:41:02;;;;;;;21.88;18.10;;;16.90;99.90;;;;;;5020319;28;20051;-72
2023/05/05 08:43:58;;;;;;;;;;;16.90;99.90;;;;;;5009731;28;20048;-72
2023/05/05 08:46:26;;;;;;;19.40;16.92;;;17.00;99.90;;;;;;5009094;28;19948;-72
2023/05/05 08:48:54;;;;;;;19.40;17.27;;;17.10;99.90;;;;;;5023622;28;20050;-71
2023/05/05 08:51:20;;;;;;;;;;;17.20;99.90;;;;;;5023218;28;20072;-70
2023/05/05 08:53:50;;;;;;;19.77;16.30;;;17.30;99.90;;;;;;5025831;28;20419;-70
2023/05/05 08:56:18;;;;;;;17.23;15.43;;;17.40;99.90;;;;;;5025786;28;20044;-71
2023/05/05 08:58:45;;;;;;;16.63;14.73;;;17.50;99.90;;;;;;5020055;28;20045;-69
2023/05/05 09:01:12;;;;;;;17.45;14.27;;;17.60;99.90;;;;;;5029382;28;20879;-71
2023/05/05 09:03:38;;;;;;;16.52;14.73;;;17.70;99.90;;;;;;5027179;28;20061;-72
2023/05/05 09:06:05;;;;;;;17.20;15.32;;;17.80;99.90;;;;;;5028635;28;20050;-70
2023/05/05 09:08:31;;;;;;;18.77;16.07;;;17.80;99.90;;;;;;5018667;28;20041;-71
2023/05/05 09:11:01;;;;;;;17.70;14.87;;;18.00;99.90;;;;;;5022580;28;20337;-71
2023/05/05 09:13:26;;;;;;;16.85;14.60;;;18.00;99.90;;;;;;5026813;28;21474;-71
2023/05/05 09:15:52;;;;;;;17.70;15.98;;;18.10;99.90;;;;;;5028600;28;20056;-71
2023/05/05 09:18:18;;;;;;;18.42;16.63;;;18.10;99.90;;;;;;5027296;28;20551;-71
2023/05/05 09:20:43;;;;;;;18.55;16.63;;;18.20;99.90;;;;;;5027439;28;20053;-71
2023/05/05 09:23:14;;;;;;;16.95;15.20;;;18.30;99.90;;;;;;5023392;28;20037;-72
2023/05/05 09:25:46;;;;;;;16.35;14.80;;;18.50;99.90;;;;;;5017860;28;20092;-73
2023/05/05 09:28:16;;;;;;;18.85;15.65;;;18.50;99.90;;;;;;5023640;28;20037;-72
2023/05/05 09:30:46;;;;;;;16.42;14.73;;;18.60;99.90;;;;;;5023461;28;20056;-73
2023/05/05 09:33:12;;;;;;;16.23;14.52;;;18.70;99.90;;;;;;5024470;28;20041;-73
2023/05/05 09:35:48;;;;;;;16.30;14.70;;;18.70;99.90;;;;;;5019752;28;20049;-73
2023/05/05 09:38:14;;;;;;;15.85;14.15;;;18.80;99.90;;;;;;5025277;28;20044;-71
2023/05/05 09:40:52;;;;;;;17.02;15.30;;;18.70;99.90;;;;;;5027643;28;20404;-70
2023/05/05 09:43:20;;;;;;;17.38;15.10;;;18.80;99.90;;;;;;5027941;28;20083;-70
2023/05/05 09:45:47;;;;;;;17.50;15.80;;;18.80;99.90;;;;;;5024185;28;20045;-70
2023/05/05 09:48:27;;;;;;;20.33;15.70;;;18.90;99.90;;;;;;5027832;28;20088;-70
2023/05/05 09:50:54;;;;;;;18.80;16.17;;;19.00;99.90;;;;;;5024536;28;20037;-70
2023/05/05 09:53:20;;;;;;;18.05;15.88;;;19.00;99.90;;;;;;5019245;28;20400;-74
2023/05/05 09:55:56;;;;;;;18.23;16.10;;;19.10;99.90;;;;;;5026384;28;20052;-74
2023/05/05 09:58:26;;;;;;;18.83;16.30;;;19.20;99.90;;;;;;5025434;28;20041;-72
2023/05/05 10:00:53;;;;;;;19.20;17.27;;;19.20;99.90;;;;;;5026132;28;20091;-71
2023/05/05 10:03:19;;;;;;;18.55;16.67;;;19.30;99.90;;;;;;5027073;28;20049;-71
2023/05/05 10:06:03;;;;;;;18.25;16.45;;;19.40;99.90;;;;;;5025058;28;20041;-77
2023/05/05 10:08:32;;;;;;;17.85;15.95;;;19.50;99.90;;;;;;5016921;28;20045;-73
2023/05/05 10:11:05;;;;;;;17.95;16.08;;;19.60;99.90;;;;;;5023046;28;20560;-73
2023/05/05 10:13:38;;;;;;;17.35;15.63;;;19.60;99.90;;;;;;5016732;28;20125;-80
2023/05/05 10:16:07;;;;;;;18.20;16.30;;;19.70;99.90;;;;;;5025265;28;20099;-77
2023/05/05 10:18:33;;;;;;;19.88;17.77;;;19.70;99.90;;;;;;5027454;28;20041;-78
2023/05/05 10:21:03;;;;;;;18.73;16.83;;;19.80;99.90;;;;;;5025554;28;20497;-76
2023/05/05 10:23:41;;;;;;;18.98;16.90;;;19.80;99.90;;;;;;5021401;28;20829;-75
2023/05/05 10:26:12;;;;;;;18.70;16.90;;;19.80;99.90;;;;;;5022717;28;20041;-74
2023/05/05 10:28:49;;;;;;;19.13;16.98;;;19.80;99.90;;;;;;5026209;28;20042;-75
2023/05/05 10:31:35;;;;;;;19.75;17.80;;;19.90;99.90;;;;;;5027687;28;20041;-75
2023/05/05 10:34:29;;;;;;;18.83;16.83;;;19.90;99.90;;;;;;5023924;28;20067;-76
2023/05/05 10:36:58;;;;;;;19.80;17.58;;;20.10;99.90;;;;;;5018786;28;20054;-73
2023/05/05 10:39:25;;;;;;;23.50;18.92;;;20.10;99.90;;;;;;5020033;28;20452;-75
2023/05/05 10:41:51;;;;;;;20.60;18.50;;;20.20;99.90;;;;;;5026046;28;20045;-76
2023/05/05 10:44:19;;;;;;;21.58;19.38;;;20.20;99.90;;;;;;5016415;28;20040;-75
2023/05/05 10:46:46;;;;;;;22.63;17.90;;;20.20;99.90;;;;;;5024980;28;20045;-76
2023/05/05 10:49:23;;;;;;;20.23;18.10;;;20.10;99.90;;;;;;5024059;28;20030;-74
2023/05/05 10:52:15;;;;;;;20.38;17.02;;;20.00;99.90;;;;;;5025771;28;20049;-73
2023/05/05 10:54:51;;;;;;;20.60;16.02;;;20.00;99.90;;;;;;5022578;28;20412;-76
2023/05/05 10:57:22;;;;;;;15.90;13.90;;;20.00;99.90;;;;;;5015631;28;20044;-74
2023/05/05 10:59:48;;;;;;;16.42;14.63;;;20.00;99.90;;;;;;5020904;28;20393;-75
2023/05/05 11:02:22;;;;;;;14.48;12.27;;;20.00;99.90;;;;;;5014164;28;20042;-75
2023/05/05 11:05:03;;;;;;;13.23;11.13;;;20.00;99.90;;;;;;5015651;28;20044;-73
2023/05/05 11:07:29;;;;;;;13.23;9.70;;;20.00;99.70;;;;;;5022145;28;20060;-75
2023/05/05 11:10:00;;;;;;;12.05;10.60;;;20.00;99.70;;;;;;5023590;28;20034;-74
2023/05/05 11:12:27;;;;;;;13.55;11.30;;;20.00;99.70;;;;;;5024136;28;20119;-72
2023/05/05 11:15:30;;;;;;;14.15;12.70;;;20.00;99.40;;;;;;5025338;28;20179;-72
2023/05/05 11:18:02;;;;;;;13.10;9.98;;;20.10;99.60;;;;;;5009983;28;20548;-72
2023/05/05 11:20:40;;;;;;;14.13;10.90;;;20.10;99.50;;;;;;5021272;28;20501;-72
2023/05/05 11:23:06;;;;;;;12.05;10.50;;;20.10;99.00;;;;;;5022859;28;20058;-72
2023/05/05 11:25:39;;;;;;;15.55;10.68;;;20.10;99.10;;;;;;5023487;28;20440;-72
2023/05/05 11:28:16;;;;;;;13.68;10.40;;;20.10;98.70;;;;;;5024630;28;20064;-71
2023/05/05 11:30:57;;;;;;;;;;;20.10;98.60;;;;;;5024541;28;20107;-76
2023/05/05 11:33:36;;;;;;;11.65;8.52;;;20.10;98.60;;;;;;5022734;28;19925;-72
2023/05/05 11:36:07;;;;;;;9.50;6.93;;;20.20;99.10;;;;;;5035509;28;20045;-73
2023/05/05 11:38:59;;;;;;;10.02;6.53;;;20.30;98.80;;;;;;5025016;28;20038;-73
2023/05/05 11:41:30;;;;;;;8.32;6.25;;;20.40;97.50;;;;;;5020984;28;20570;-71
2023/05/05 11:44:11;;;;;;;8.85;5.18;;;20.50;97.10;;;;;;5025877;28;20559;-71
2023/05/05 11:47:03;;;;;;;7.53;5.07;;;20.50;96.60;;;;;;5025439;28;20053;-72
2023/05/05 11:49:28;;;;;;;7.68;5.05;;;20.40;95.10;;;;;;5023457;28;20053;-71
2023/05/05 11:52:09;;;;;;;5.78;4.22;;;20.40;95.60;;;;;;5018942;28;20047;-71
2023/05/05 11:54:36;;;;;;;6.43;4.00;;;20.40;95.40;;;;;;5022846;28;20106;-71
2023/05/05 11:57:04;;;;;;;;;;;20.30;95.30;;;;;;5014536;28;20423;-70
2023/05/05 11:59:31;;;;;;;9.20;6.05;;;20.30;95.20;;;;;;5022248;28;19932;-72
2023/05/05 12:01:57;;;;;;;8.50;5.38;;;20.20;95.30;;;;;;5023533;28;20048;-70
2023/05/05 12:04:23;;;;;;;7.65;4.70;;;20.20;95.40;;;;;;5018078;28;20049;-71
2023/05/05 12:06:49;;;;;;;6.07;3.70;;;20.10;95.20;;;;;;5016722;28;20393;-71
2023/05/05 12:09:19;;;;;;;6.82;3.90;;;20.10;95.10;;;;;;5027003;28;20038;-72
2023/05/05 12:11:48;;;;;;;6.13;4.10;;;20.00;94.90;;;;;;5028574;28;20041;-71
2023/05/05 12:14:14;;;;;;;8.45;4.28;;;19.90;95.40;;;;;;5029308;28;20412;-71
2023/05/05 12:16:40;;;;;;;7.90;4.80;;;19.90;95.70;;;;;;5028450;28;20152;-71
2023/05/05 12:19:10;;;;;;;7.55;4.38;;;19.80;95.90;;;;;;5028678;28;20099;-70
2023/05/05 12:21:37;;;;;;;5.97;3.72;;;19.80;95.70;;;;;;5028494;28;20079;-71
2023/05/05 12:24:02;;;;;;;7.03;3.88;;;19.80;95.70;;;;;;5028420;28;20377;-70
2023/05/05 12:26:30;;;;;;;6.15;3.47;;;19.70;95.70;;;;;;5025048;28;20040;-70
2023/05/05 12:28:59;;;;;;;;;;;19.70;95.70;;;;;;5024681;28;20110;-70
2023/05/05 12:31:38;;;;;;;6.88;4.30;;;19.60;96.20;;;;;;5029211;28;20513;-72
2023/05/05 12:34:06;;;;;;;6.85;4.10;;;19.50;96.60;;;;;;5028505;28;20630;-72
2023/05/05 12:36:35;;;;;;;9.10;3.85;;;19.50;97.00;;;;;;5022984;28;20045;-71
2023/05/05 12:39:03;;;;;;;8.73;4.25;;;19.40;97.80;;;;;;5022501;28;20448;-71
2023/05/05 12:41:30;;;;;;;6.53;3.92;;;19.40;98.20;;;;;;5020429;28;20482;-72
2023/05/05 12:43:57;;;;;;;9.23;4.50;;;19.40;99.20;;;;;;5023407;28;20030;-72
2023/05/05 12:46:24;;;;;;;8.13;4.60;;;19.30;99.90;;;;;;5022545;28;20033;-70